createdAt,value
2018-05-03T00:00:09.089Z,57.95
2018-05-03T00:01:09.120Z,58.04
2018-05-03T00:02:09.116Z,57.65
2018-05-03T00:03:09.110Z,57.65
2018-05-03T00:04:09.158Z,57.95
2018-05-03T00:05:09.158Z,58.42
2018-05-03T00:06:09.136Z,58.42
2018-05-03T00:07:09.145Z,58.33
2018-05-03T00:08:09.177Z,58.14
2018-05-03T00:09:09.198Z,58.52
2018-05-03T00:10:09.216Z,58.14
2018-05-03T00:11:09.205Z,58.14
2018-05-03T00:12:09.211Z,58.62
2018-05-03T00:13:09.211Z,58.23
2018-05-03T00:14:09.226Z,58.33
2018-05-03T00:15:09.255Z,58.33
2018-05-03T00:16:09.256Z,58.42
2018-05-03T00:17:09.243Z,58.52
2018-05-03T00:18:09.257Z,58.33
2018-05-03T00:19:09.256Z,58.23
2018-05-03T00:20:09.278Z,58.33
2018-05-03T00:21:09.335Z,58.62
2018-05-03T00:22:09.294Z,58.62
2018-05-03T00:23:09.393Z,58.62
2018-05-03T00:24:09.309Z,58.71
2018-05-03T00:25:09.331Z,58.62
2018-05-03T00:26:09.386Z,58.62
2018-05-03T00:27:09.349Z,58.62
2018-05-03T00:28:09.358Z,58.81
2018-05-03T00:29:09.372Z,58.62
2018-05-03T00:30:09.397Z,58.42
2018-05-03T00:31:09.388Z,59.19
2018-05-03T00:32:09.395Z,58.81
2018-05-03T00:33:09.390Z,58.62
2018-05-03T00:34:09.431Z,58.52
2018-05-03T00:35:09.424Z,58.33
2018-05-03T00:36:09.434Z,58.62
2018-05-03T00:37:09.432Z,58.71
2018-05-03T00:38:09.469Z,58.42
2018-05-03T00:39:09.448Z,58.62
2018-05-03T00:40:09.461Z,58.23
2018-05-03T00:41:09.464Z,58.42
2018-05-03T00:42:09.509Z,58.62
2018-05-03T00:43:09.499Z,58.62
2018-05-03T00:44:09.515Z,58.71
2018-05-03T00:45:09.522Z,58.74
2018-05-03T00:46:09.544Z,58.81
2018-05-03T00:47:09.553Z,58.84
2018-05-03T00:48:09.542Z,58.91
2018-05-03T00:49:09.582Z,58.62
2018-05-03T00:50:09.552Z,58.62
2018-05-03T00:51:09.572Z,58.71
2018-05-03T00:52:09.571Z,58.84
2018-05-03T00:53:09.585Z,58.81
2018-05-03T00:54:09.629Z,58.64
2018-05-03T00:55:09.600Z,58.71
2018-05-03T00:56:09.616Z,58.33
2018-05-03T00:57:09.739Z,58.62
2018-05-03T00:58:09.648Z,59.19
2018-05-03T00:59:09.637Z,59.00
2018-05-03T01:00:09.667Z,58.91
2018-05-03T01:01:09.659Z,59.00
2018-05-03T01:02:09.694Z,58.71
2018-05-03T01:03:09.696Z,58.71
2018-05-03T01:04:09.699Z,59.09
2018-05-03T01:05:09.697Z,59.19
2018-05-03T01:06:09.716Z,58.91
2018-05-03T01:07:09.731Z,59.00
2018-05-03T01:08:09.734Z,58.91
2018-05-03T01:09:09.776Z,58.81
2018-05-03T01:10:09.742Z,58.91
2018-05-03T01:11:09.757Z,58.52
2018-05-03T01:12:09.785Z,58.71
2018-05-03T01:13:09.844Z,59.00
2018-05-03T01:14:09.781Z,58.52
2018-05-03T01:15:09.800Z,58.81
2018-05-03T01:16:09.797Z,58.81
2018-05-03T01:17:09.805Z,59.29
2018-05-03T01:18:09.833Z,58.91
2018-05-03T01:19:09.850Z,59.09
2018-05-03T01:20:09.878Z,59.19
2018-05-03T01:21:09.858Z,59.19
2018-05-03T01:22:09.855Z,59.19
2018-05-03T01:23:09.868Z,58.81
2018-05-03T01:24:09.875Z,59.09
2018-05-03T01:25:09.884Z,58.71
2018-05-03T01:26:09.901Z,58.71
2018-05-03T01:27:09.924Z,59.09
2018-05-03T01:28:09.990Z,59.00
2018-05-03T01:29:09.932Z,59.09
2018-05-03T01:30:09.938Z,59.09
2018-05-03T01:31:09.946Z,59.09
2018-05-03T01:32:09.973Z,58.71
2018-05-03T01:33:09.958Z,58.81
2018-05-03T01:34:09.977Z,59.09
2018-05-03T01:35:09.994Z,59.09
2018-05-03T01:36:10.021Z,59.09
2018-05-03T01:37:10.001Z,59.00
2018-05-03T01:38:10.008Z,59.00
2018-05-03T01:39:10.031Z,59.09
2018-05-03T01:40:10.109Z,59.00
2018-05-03T01:41:10.045Z,58.91
2018-05-03T01:42:10.043Z,59.00
2018-05-03T01:43:10.075Z,58.91
2018-05-03T01:44:10.080Z,59.48
2018-05-03T01:45:10.081Z,59.38
2018-05-03T01:46:10.116Z,59.38
2018-05-03T01:47:10.123Z,59.19
2018-05-03T01:48:10.136Z,59.48
2018-05-03T01:49:10.154Z,59.19
2018-05-03T01:50:10.124Z,59.77
2018-05-03T01:51:10.160Z,59.38
2018-05-03T01:52:10.158Z,59.38
2018-05-03T01:53:10.243Z,59.48
2018-05-03T01:54:10.168Z,59.48
2018-05-03T01:55:10.172Z,59.29
2018-05-03T01:56:10.195Z,59.38
2018-05-03T01:57:10.213Z,59.19
2018-05-03T01:58:10.196Z,59.58
2018-05-03T01:59:10.207Z,59.38
2018-05-03T02:00:10.238Z,59.38
2018-05-03T02:01:10.231Z,59.38
2018-05-03T02:02:10.228Z,59.77
2018-05-03T02:03:10.255Z,59.58
2018-05-03T02:04:10.247Z,59.77
2018-05-03T02:05:10.272Z,60.25
2018-05-03T02:06:10.375Z,60.05
2018-05-03T02:07:10.272Z,59.96
2018-05-03T02:08:10.284Z,59.86
2018-05-03T02:09:10.292Z,59.96
2018-05-03T02:10:10.309Z,59.96
2018-05-03T02:11:10.318Z,60.15
2018-05-03T02:12:10.320Z,60.15
2018-05-03T02:13:10.332Z,60.05
2018-05-03T02:14:10.339Z,60.25
2018-05-03T02:15:10.351Z,60.44
2018-05-03T02:16:10.359Z,60.25
2018-05-03T02:17:10.442Z,60.44
2018-05-03T02:18:10.450Z,60.92
2018-05-03T02:19:10.404Z,61.21
2018-05-03T02:20:10.389Z,61.02
2018-05-03T02:21:10.451Z,61.30
2018-05-03T02:22:10.432Z,61.49
2018-05-03T02:23:10.468Z,61.69
2018-05-03T02:24:10.437Z,61.69
2018-05-03T02:25:10.446Z,61.98
2018-05-03T02:26:10.455Z,61.98
2018-05-03T02:27:10.501Z,62.07
2018-05-03T02:28:10.468Z,62.07
2018-05-03T02:29:10.520Z,62.16
2018-05-03T02:30:10.525Z,62.84
2018-05-03T02:31:10.499Z,62.84
2018-05-03T02:32:10.576Z,62.55
2018-05-03T02:33:10.530Z,63.22
2018-05-03T02:34:10.557Z,63.51
2018-05-03T02:35:10.560Z,63.32
2018-05-03T02:36:10.567Z,63.22
2018-05-03T02:37:10.574Z,62.84
2018-05-03T02:38:10.561Z,62.45
2018-05-03T02:39:10.573Z,62.74
2018-05-03T02:40:10.616Z,62.65
2018-05-03T02:41:10.610Z,62.65
2018-05-03T02:42:10.620Z,62.65
2018-05-03T02:43:10.621Z,62.74
2018-05-03T02:44:10.624Z,62.65
2018-05-03T02:45:10.637Z,63.22
2018-05-03T02:46:10.656Z,63.42
2018-05-03T02:47:10.651Z,63.12
2018-05-03T02:48:10.707Z,63.22
2018-05-03T02:49:10.664Z,63.12
2018-05-03T02:50:10.675Z,63.32
2018-05-03T02:51:10.676Z,63.60
2018-05-03T02:52:10.703Z,63.32
2018-05-03T02:53:10.725Z,63.99
2018-05-03T02:54:10.764Z,63.79
2018-05-03T02:55:10.721Z,63.32
2018-05-03T02:56:10.735Z,63.51
2018-05-03T02:57:10.729Z,63.12
2018-05-03T02:58:10.759Z,63.42
2018-05-03T02:59:10.762Z,63.32
2018-05-03T03:00:10.769Z,63.12
2018-05-03T03:01:10.773Z,63.51
2018-05-03T03:02:10.779Z,63.32
2018-05-03T03:03:10.793Z,63.12
2018-05-03T03:04:10.829Z,63.22
2018-05-03T03:05:10.841Z,63.70
2018-05-03T03:06:10.879Z,63.70
2018-05-03T03:07:10.854Z,63.79
2018-05-03T03:08:10.860Z,63.99
2018-05-03T03:09:10.869Z,63.79
2018-05-03T03:10:10.932Z,64.18
2018-05-03T03:11:10.887Z,63.70
2018-05-03T03:12:10.901Z,63.60
2018-05-03T03:13:10.918Z,63.70
2018-05-03T03:14:10.920Z,63.99
2018-05-03T03:15:10.908Z,63.89
2018-05-03T03:16:10.916Z,63.89
2018-05-03T03:17:10.943Z,64.37
2018-05-03T03:18:10.919Z,64.47
2018-05-03T03:19:10.928Z,64.37
2018-05-03T03:20:10.944Z,64.09
2018-05-03T03:21:10.954Z,64.09
2018-05-03T03:22:10.974Z,64.09
2018-05-03T03:23:10.984Z,64.09
2018-05-03T03:24:11.016Z,64.47
2018-05-03T03:25:11.006Z,64.28
2018-05-03T03:26:11.002Z,64.09
2018-05-03T03:27:11.010Z,64.37
2018-05-03T03:28:11.036Z,64.09
2018-05-03T03:29:11.075Z,64.28
2018-05-03T03:30:11.060Z,64.47
2018-05-03T03:31:11.061Z,64.37
2018-05-03T03:32:11.061Z,64.76
2018-05-03T03:33:11.067Z,64.47
2018-05-03T03:34:11.076Z,64.76
2018-05-03T03:35:11.085Z,64.76
2018-05-03T03:36:11.096Z,64.76
2018-05-03T03:37:11.095Z,64.37
2018-05-03T03:38:11.112Z,64.95
2018-05-03T03:39:11.119Z,65.23
2018-05-03T03:40:11.134Z,65.23
2018-05-03T03:41:11.144Z,65.14
2018-05-03T03:42:11.156Z,64.95
2018-05-03T03:43:11.182Z,64.95
2018-05-03T03:44:11.183Z,65.43
2018-05-03T03:45:11.219Z,65.05
2018-05-03T03:46:11.229Z,65.43
2018-05-03T03:47:11.204Z,64.95
2018-05-03T03:48:11.218Z,65.43
2018-05-03T03:49:11.244Z,65.14
2018-05-03T03:50:11.236Z,65.43
2018-05-03T03:51:11.224Z,65.33
2018-05-03T03:52:11.234Z,65.43
2018-05-03T03:53:11.253Z,65.33
2018-05-03T03:54:11.276Z,65.33
2018-05-03T03:55:11.351Z,65.33
2018-05-03T03:56:11.302Z,65.43
2018-05-03T03:57:11.294Z,65.33
2018-05-03T03:58:11.307Z,65.62
2018-05-03T03:59:11.369Z,65.43
2018-05-03T04:00:11.309Z,65.33
2018-05-03T04:01:11.359Z,65.33
2018-05-03T04:02:11.359Z,65.43
2018-05-03T04:03:11.374Z,65.52
2018-05-03T04:04:11.375Z,65.33
2018-05-03T04:05:11.381Z,65.33
2018-05-03T04:06:11.367Z,65.33
2018-05-03T04:07:11.370Z,65.33
2018-05-03T04:08:11.381Z,65.43
2018-05-03T04:09:11.402Z,65.62
2018-05-03T04:10:11.412Z,65.72
2018-05-03T04:11:11.503Z,65.62
2018-05-03T04:12:11.452Z,65.81
2018-05-03T04:13:11.457Z,65.62
2018-05-03T04:14:11.451Z,65.72
2018-05-03T04:15:11.448Z,65.81
2018-05-03T04:16:11.459Z,65.72
2018-05-03T04:17:11.464Z,65.72
2018-05-03T04:18:11.496Z,65.81
2018-05-03T04:19:11.502Z,65.81
2018-05-03T04:20:11.497Z,65.33
2018-05-03T04:21:11.515Z,65.33
2018-05-03T04:22:11.579Z,65.14
2018-05-03T04:23:11.562Z,65.33
2018-05-03T04:24:11.544Z,65.43
2018-05-03T04:25:11.571Z,65.33
2018-05-03T04:26:11.576Z,65.33
2018-05-03T04:27:11.639Z,65.23
2018-05-03T04:28:11.572Z,65.33
2018-05-03T04:29:11.597Z,65.33
2018-05-03T04:30:11.621Z,65.52
2018-05-03T04:31:11.605Z,65.33
2018-05-03T04:32:11.672Z,65.33
2018-05-03T04:33:11.664Z,65.43
2018-05-03T04:34:11.655Z,65.33
2018-05-03T04:35:11.655Z,65.14
2018-05-03T04:36:11.665Z,65.14
2018-05-03T04:37:11.652Z,65.43
2018-05-03T04:38:11.676Z,65.43
2018-05-03T04:39:11.698Z,65.43
2018-05-03T04:40:11.706Z,65.52
2018-05-03T04:41:11.686Z,65.05
2018-05-03T04:42:11.704Z,65.33
2018-05-03T04:43:11.724Z,65.43
2018-05-03T04:44:11.746Z,65.36
2018-05-03T04:45:11.722Z,65.43
2018-05-03T04:46:11.739Z,65.14
2018-05-03T04:47:11.745Z,65.43
2018-05-03T04:48:11.763Z,65.36
2018-05-03T04:49:11.766Z,65.46
2018-05-03T04:50:11.775Z,65.43
2018-05-03T04:51:11.779Z,65.84
2018-05-03T04:52:11.801Z,65.36
2018-05-03T04:53:11.812Z,65.17
2018-05-03T04:54:11.880Z,65.36
2018-05-03T04:55:11.825Z,65.17
2018-05-03T04:56:11.825Z,65.17
2018-05-03T04:57:11.843Z,65.17
2018-05-03T04:58:11.846Z,65.46
2018-05-03T04:59:11.857Z,65.46
2018-05-03T05:00:11.884Z,65.56
2018-05-03T05:01:11.875Z,65.46
2018-05-03T05:02:11.909Z,65.36
2018-05-03T05:03:11.889Z,65.17
2018-05-03T05:04:11.920Z,65.46
2018-05-03T05:06:11.935Z,65.46
2018-05-03T05:07:11.940Z,65.46
2018-05-03T05:08:11.938Z,65.56
2018-05-03T05:09:11.945Z,65.08
2018-05-03T05:10:11.961Z,65.17
2018-05-03T05:11:11.962Z,64.98
2018-05-03T05:12:12.005Z,65.17
2018-05-03T05:13:12.050Z,65.36
2018-05-03T05:14:12.007Z,64.98
2018-05-03T05:15:12.067Z,65.46
2018-05-03T05:16:12.011Z,65.46
2018-05-03T05:17:12.036Z,65.17
2018-05-03T05:18:12.040Z,65.36
2018-05-03T05:19:12.100Z,65.56
2018-05-03T05:20:12.093Z,65.65
2018-05-03T05:21:12.097Z,65.65
2018-05-03T05:22:12.114Z,65.88
2018-05-03T05:23:12.074Z,65.59
2018-05-03T05:24:12.188Z,65.78
2018-05-03T05:25:12.098Z,65.65
2018-05-03T05:26:12.133Z,65.75
2018-05-03T05:27:12.114Z,66.07
2018-05-03T05:28:12.134Z,65.88
2018-05-03T05:29:12.160Z,65.69
2018-05-03T05:30:12.206Z,65.78
2018-05-03T05:31:12.196Z,65.78
2018-05-03T05:32:12.160Z,65.59
2018-05-03T05:33:12.183Z,65.78
2018-05-03T05:34:12.185Z,65.97
2018-05-03T05:35:12.205Z,65.88
2018-05-03T05:36:12.208Z,65.97
2018-05-03T05:37:12.208Z,65.97
2018-05-03T05:38:12.244Z,65.69
2018-05-03T05:39:12.251Z,66.26
2018-05-03T05:40:12.279Z,65.78
2018-05-03T05:41:12.288Z,65.97
2018-05-03T05:42:12.288Z,65.78
2018-05-03T05:43:12.295Z,65.78
2018-05-03T05:44:12.305Z,65.78
2018-05-03T05:45:12.305Z,65.49
2018-05-03T05:46:12.318Z,65.40
2018-05-03T05:47:12.325Z,65.49
2018-05-03T05:48:12.323Z,65.40
2018-05-03T05:49:12.335Z,65.11
2018-05-03T05:50:12.351Z,65.20
2018-05-03T05:51:12.492Z,65.49
2018-05-03T05:52:12.385Z,65.43
2018-05-03T05:53:12.404Z,65.23
2018-05-03T05:54:12.421Z,65.23
2018-05-03T05:55:12.383Z,65.23
2018-05-03T05:56:12.416Z,65.14
2018-05-03T05:57:12.417Z,65.14
2018-05-03T05:58:12.491Z,65.72
2018-05-03T05:59:12.432Z,65.43
2018-05-03T06:00:12.441Z,65.56
2018-05-03T06:01:12.500Z,65.43
2018-05-03T06:02:12.457Z,65.56
2018-05-03T06:03:12.472Z,65.81
2018-05-03T06:04:12.581Z,65.62
2018-05-03T06:05:12.484Z,65.72
2018-05-03T06:06:12.551Z,65.72
2018-05-03T06:07:12.540Z,65.84
2018-05-03T06:08:12.561Z,66.23
2018-05-03T06:09:12.572Z,66.52
2018-05-03T06:10:12.662Z,66.30
2018-05-03T06:11:12.569Z,65.91
2018-05-03T06:12:12.628Z,66.23
2018-05-03T06:13:12.598Z,65.75
2018-05-03T06:14:12.590Z,66.14
2018-05-03T06:15:12.621Z,66.20
2018-05-03T06:16:12.621Z,65.81
2018-05-03T06:17:12.629Z,65.91
2018-05-03T06:18:12.619Z,65.56
2018-05-03T06:19:12.640Z,65.08
2018-05-03T06:20:12.636Z,65.17
2018-05-03T06:21:12.669Z,64.98
2018-05-03T06:22:12.661Z,65.17
2018-05-03T06:23:12.692Z,64.60
2018-05-03T06:24:12.675Z,64.89
2018-05-03T06:25:12.686Z,64.50
2018-05-03T06:26:12.705Z,64.69
2018-05-03T06:27:12.721Z,64.69
2018-05-03T06:28:12.777Z,64.31
2018-05-03T06:29:12.786Z,64.50
2018-05-03T06:30:12.750Z,64.22
2018-05-03T06:31:12.771Z,64.22
2018-05-03T06:32:12.805Z,64.40
2018-05-03T06:33:12.764Z,64.50
2018-05-03T06:34:12.779Z,63.64
2018-05-03T06:35:12.796Z,64.12
2018-05-03T06:36:12.821Z,64.02
2018-05-03T06:37:12.833Z,63.73
2018-05-03T06:38:12.881Z,63.83
2018-05-03T06:39:12.843Z,63.64
2018-05-03T06:40:12.841Z,64.02
2018-05-03T06:41:12.855Z,63.73
2018-05-03T06:42:12.893Z,63.25
2018-05-03T06:43:12.884Z,63.35
2018-05-03T06:44:12.885Z,63.54
2018-05-03T06:45:12.956Z,62.77
2018-05-03T06:46:12.907Z,62.96
2018-05-03T06:47:12.925Z,62.51
2018-05-03T06:48:12.924Z,62.32
2018-05-03T06:49:12.966Z,62.32
2018-05-03T06:50:12.945Z,62.51
2018-05-03T06:51:12.970Z,62.41
2018-05-03T06:52:12.971Z,61.84
2018-05-03T06:53:12.992Z,61.94
2018-05-03T06:54:13.060Z,61.97
2018-05-03T06:55:12.998Z,61.94
2018-05-03T06:56:13.009Z,61.97
2018-05-03T06:57:13.018Z,61.97
2018-05-03T06:58:13.052Z,61.97
2018-05-03T06:59:13.083Z,62.13
2018-05-03T07:00:13.209Z,62.41
2018-05-03T07:01:13.074Z,62.80
2018-05-03T07:02:13.100Z,62.99
2018-05-03T07:03:13.113Z,62.41
2018-05-03T07:04:13.163Z,62.23
2018-05-03T07:05:13.116Z,62.32
2018-05-03T07:06:13.117Z,61.94
2018-05-03T07:07:13.145Z,61.16
2018-05-03T07:08:13.138Z,61.07
2018-05-03T07:09:13.151Z,60.88
2018-05-03T07:10:13.169Z,60.88
2018-05-03T07:11:13.168Z,60.88
2018-05-03T07:12:13.187Z,60.59
2018-05-03T07:13:13.220Z,60.88
2018-05-03T07:14:13.211Z,60.11
2018-05-03T07:15:13.241Z,60.42
2018-05-03T07:16:13.283Z,59.72
2018-05-03T07:17:13.269Z,59.53
2018-05-03T07:18:13.252Z,58.95
2018-05-03T07:19:13.271Z,59.05
2018-05-03T07:20:13.276Z,59.08
2018-05-03T07:21:13.276Z,59.34
2018-05-03T07:22:13.292Z,59.24
2018-05-03T07:23:13.534Z,59.05
2018-05-03T07:24:13.414Z,59.24
2018-05-03T07:25:13.422Z,59.15
2018-05-03T07:26:13.367Z,58.67
2018-05-03T07:27:13.381Z,58.47
2018-05-03T07:28:13.359Z,58.76
2018-05-03T07:29:13.401Z,58.67
2018-05-03T07:30:13.418Z,58.67
2018-05-03T07:31:13.396Z,58.86
2018-05-03T07:32:13.406Z,58.47
2018-05-03T07:33:13.436Z,58.95
2018-05-03T07:34:13.420Z,58.95
2018-05-03T07:35:13.441Z,58.86
2018-05-03T07:36:13.454Z,58.12
2018-05-03T07:37:13.452Z,58.02
2018-05-03T07:38:13.461Z,58.12
2018-05-03T07:39:13.529Z,57.73
2018-05-03T07:40:13.482Z,57.83
2018-05-03T07:41:13.495Z,57.83
2018-05-03T07:42:13.543Z,57.54
2018-05-03T07:43:13.515Z,57.15
2018-05-03T07:44:13.533Z,57.54
2018-05-03T07:45:13.572Z,57.25
2018-05-03T07:46:13.552Z,57.54
2018-05-03T07:47:13.609Z,56.58
2018-05-03T07:48:13.593Z,56.67
2018-05-03T07:49:13.588Z,56.29
2018-05-03T07:50:13.610Z,56.03
2018-05-03T07:51:13.603Z,56.12
2018-05-03T07:52:13.764Z,56.12
2018-05-03T07:53:13.667Z,56.12
2018-05-03T07:54:13.671Z,56.12
2018-05-03T07:55:13.732Z,56.03
2018-05-03T07:56:13.672Z,55.77
2018-05-03T07:57:13.693Z,55.67
2018-05-03T07:58:13.742Z,55.48
2018-05-03T07:59:13.709Z,55.48
2018-05-03T08:00:13.739Z,55.38
2018-05-03T08:01:13.725Z,55.07
2018-05-03T08:02:13.732Z,55.38
2018-05-03T08:03:13.784Z,54.90
2018-05-03T08:04:13.798Z,54.71
2018-05-03T08:05:13.856Z,54.80
2018-05-03T08:06:13.793Z,54.13
2018-05-03T08:07:13.863Z,54.03
2018-05-03T08:08:13.819Z,54.35
2018-05-03T08:09:13.814Z,54.16
2018-05-03T08:10:13.821Z,53.67
2018-05-03T08:11:13.832Z,53.87
2018-05-03T08:12:13.860Z,53.70
2018-05-03T08:13:13.860Z,53.87
2018-05-03T08:14:13.878Z,53.77
2018-05-03T08:16:13.951Z,53.41
2018-05-03T08:18:13.969Z,53.05
2018-05-03T08:19:13.945Z,52.86
2018-05-03T08:20:13.951Z,52.86
2018-05-03T08:21:13.964Z,52.37
2018-05-03T08:22:13.982Z,52.55
2018-05-03T08:23:13.991Z,52.55
2018-05-03T08:24:14.058Z,52.45
2018-05-03T08:25:14.005Z,52.64
2018-05-03T08:26:14.025Z,52.64
2018-05-03T08:27:14.061Z,51.94
2018-05-03T08:28:14.040Z,52.16
2018-05-03T08:29:14.074Z,51.39
2018-05-03T08:30:14.136Z,51.77
2018-05-03T08:31:14.139Z,51.87
2018-05-03T08:32:14.103Z,51.22
2018-05-03T08:33:14.113Z,51.70
2018-05-03T08:34:14.152Z,51.77
2018-05-03T08:35:14.167Z,50.90
2018-05-03T08:36:14.169Z,50.81
2018-05-03T08:37:14.182Z,50.90
2018-05-03T08:38:14.182Z,50.81
2018-05-03T08:39:14.182Z,51.10
2018-05-03T08:40:14.192Z,51.00
2018-05-03T08:41:14.206Z,50.81
2018-05-03T08:42:14.212Z,50.54
2018-05-03T08:43:14.379Z,50.45
2018-05-03T08:44:14.236Z,50.35
2018-05-03T08:45:14.261Z,49.96
2018-05-03T08:46:14.318Z,50.26
2018-05-03T08:47:14.274Z,50.64
2018-05-03T08:48:14.322Z,50.86
2018-05-03T08:49:14.323Z,50.35
2018-05-03T08:50:14.369Z,49.94
2018-05-03T08:51:14.377Z,50.35
2018-05-03T08:52:14.372Z,50.18
2018-05-03T08:53:14.394Z,50.38
2018-05-03T08:54:14.405Z,49.60
2018-05-03T08:55:14.402Z,49.41
2018-05-03T08:56:14.467Z,49.15
2018-05-03T08:57:14.421Z,49.15
2018-05-03T08:58:14.425Z,48.93
2018-05-03T08:59:14.440Z,48.95
2018-05-03T09:00:14.475Z,48.66
2018-05-03T09:01:14.483Z,48.57
2018-05-03T09:02:14.478Z,48.28
2018-05-03T09:03:14.482Z,48.54
2018-05-03T09:04:14.502Z,48.35
2018-05-03T09:05:14.509Z,48.66
2018-05-03T09:06:14.534Z,48.18
2018-05-03T09:07:14.561Z,48.21
2018-05-03T09:08:14.549Z,47.91
2018-05-03T09:09:14.592Z,47.72
2018-05-03T09:10:14.581Z,47.53
2018-05-03T09:11:14.591Z,47.43
2018-05-03T09:12:14.625Z,47.72
2018-05-03T09:13:14.636Z,47.72
2018-05-03T09:14:14.641Z,47.53
2018-05-03T09:15:14.656Z,47.91
2018-05-03T09:16:14.671Z,47.45
2018-05-03T09:17:14.697Z,47.05
2018-05-03T09:18:14.693Z,47.72
2018-05-03T09:19:14.750Z,47.05
2018-05-03T09:20:14.762Z,47.07
2018-05-03T09:21:14.830Z,47.07
2018-05-03T09:22:14.812Z,47.16
2018-05-03T09:23:14.808Z,47.26
2018-05-03T09:24:14.793Z,47.24
2018-05-03T09:25:14.831Z,47.16
2018-05-03T09:26:14.805Z,47.05
2018-05-03T09:27:14.828Z,46.85
2018-05-03T09:28:14.837Z,46.97
2018-05-03T09:29:14.843Z,46.68
2018-05-03T09:30:14.887Z,46.78
2018-05-03T09:31:14.889Z,46.68
2018-05-03T09:32:14.897Z,46.90
2018-05-03T09:33:14.904Z,46.58
2018-05-03T09:34:14.977Z,46.39
2018-05-03T09:35:14.959Z,46.17
2018-05-03T09:36:14.965Z,46.30
2018-05-03T09:37:14.977Z,46.39
2018-05-03T09:38:15.007Z,46.61
2018-05-03T09:39:15.055Z,46.80
2018-05-03T09:40:15.022Z,46.32
2018-05-03T09:41:15.059Z,46.42
2018-05-03T09:42:15.046Z,45.54
2018-05-03T09:43:15.118Z,45.45
2018-05-03T09:44:15.078Z,45.81
2018-05-03T09:45:15.087Z,45.52
2018-05-03T09:46:15.095Z,46.00
2018-05-03T09:47:15.105Z,45.54
2018-05-03T09:48:15.121Z,45.54
2018-05-03T09:49:15.148Z,45.45
2018-05-03T09:50:15.154Z,45.35
2018-05-03T09:51:15.194Z,45.45
2018-05-03T09:52:15.188Z,45.57
2018-05-03T09:53:15.187Z,45.37
2018-05-03T09:54:15.293Z,45.28
2018-05-03T09:55:15.234Z,45.06
2018-05-03T09:56:15.265Z,45.14
2018-05-03T09:57:15.279Z,45.06
2018-05-03T09:58:15.278Z,45.06
2018-05-03T09:59:15.307Z,45.16
2018-05-03T10:00:15.308Z,45.06
2018-05-03T10:01:15.303Z,44.31
2018-05-03T10:02:15.349Z,44.79
2018-05-03T10:03:15.365Z,44.60
2018-05-03T10:04:15.357Z,44.40
2018-05-03T10:05:15.361Z,44.31
2018-05-03T10:06:15.384Z,44.50
2018-05-03T10:07:15.397Z,44.53
2018-05-03T10:08:15.435Z,44.40
2018-05-03T10:09:15.441Z,44.21
2018-05-03T10:10:15.449Z,44.62
2018-05-03T10:11:15.522Z,44.53
2018-05-03T10:12:15.503Z,44.43
2018-05-03T10:13:15.595Z,43.95
2018-05-03T10:14:15.523Z,44.43
2018-05-03T10:15:15.524Z,44.33
2018-05-03T10:16:15.535Z,44.13
2018-05-03T10:17:15.540Z,43.95
2018-05-03T10:18:15.562Z,44.04
2018-05-03T10:19:15.579Z,43.96
2018-05-03T10:20:15.617Z,43.96
2018-05-03T10:21:15.630Z,43.99
2018-05-03T10:22:15.630Z,43.41
2018-05-03T10:23:15.635Z,43.31
2018-05-03T10:24:15.682Z,43.23
2018-05-03T10:25:15.680Z,43.33
2018-05-03T10:26:15.677Z,42.75
2018-05-03T10:27:15.709Z,42.92
2018-05-03T10:28:15.721Z,43.02
2018-05-03T10:29:15.750Z,42.90
2018-05-03T10:30:15.833Z,42.90
2018-05-03T10:31:15.782Z,43.19
2018-05-03T10:32:15.770Z,43.27
2018-05-03T10:33:15.832Z,44.04
2018-05-03T10:34:15.815Z,43.46
2018-05-03T10:35:15.835Z,43.65
2018-05-03T10:36:15.971Z,43.75
2018-05-03T10:37:15.883Z,43.73
2018-05-03T10:38:15.873Z,43.07
2018-05-03T10:39:15.880Z,43.92
2018-05-03T10:40:15.911Z,43.92
2018-05-03T10:41:15.915Z,43.46
2018-05-03T10:42:15.960Z,43.75
2018-05-03T10:43:15.951Z,43.63
2018-05-03T10:44:16.008Z,43.54
2018-05-03T10:45:15.995Z,43.03
2018-05-03T10:46:15.996Z,43.05
2018-05-03T10:47:16.024Z,43.24
2018-05-03T10:48:16.082Z,42.96
2018-05-03T10:49:16.055Z,43.92
2018-05-03T10:50:16.064Z,43.63
2018-05-03T10:51:16.088Z,44.04
2018-05-03T10:52:16.092Z,43.65
2018-05-03T10:53:16.115Z,43.17
2018-05-03T10:54:16.191Z,42.59
2018-05-03T10:55:16.135Z,43.07
2018-05-03T10:56:16.168Z,43.85
2018-05-03T10:57:16.178Z,43.85
2018-05-03T10:58:16.221Z,42.88
2018-05-03T10:59:16.227Z,43.65
2018-05-03T11:00:16.244Z,43.07
2018-05-03T11:01:16.254Z,42.88
2018-05-03T11:02:16.295Z,42.88
2018-05-03T11:03:16.256Z,43.17
2018-05-03T11:04:16.285Z,42.80
2018-05-03T11:05:16.444Z,42.82
2018-05-03T11:06:16.350Z,42.85
2018-05-03T11:07:16.329Z,42.86
2018-05-03T11:08:16.350Z,42.48
2018-05-03T11:09:16.374Z,42.48
2018-05-03T11:10:16.422Z,41.70
2018-05-03T11:11:16.417Z,41.82
2018-05-03T11:12:16.416Z,41.82
2018-05-03T11:13:16.449Z,41.61
2018-05-03T11:14:16.448Z,41.63
2018-05-03T11:15:16.463Z,41.06
2018-05-03T11:16:16.500Z,41.45
2018-05-03T11:17:16.540Z,41.26
2018-05-03T11:18:16.531Z,40.79
2018-05-03T11:19:16.545Z,40.60
2018-05-03T11:20:16.571Z,40.31
2018-05-03T11:21:16.581Z,40.13
2018-05-03T11:22:16.607Z,40.29
2018-05-03T11:23:16.659Z,39.43
2018-05-03T11:24:16.653Z,40.11
2018-05-03T11:25:16.691Z,40.42
2018-05-03T11:26:16.718Z,39.45
2018-05-03T11:27:16.738Z,39.37
2018-05-03T11:28:16.744Z,39.10
2018-05-03T11:29:16.744Z,38.91
2018-05-03T11:30:16.846Z,39.47
2018-05-03T11:31:16.893Z,39.57
2018-05-03T11:32:16.837Z,39.55
2018-05-03T11:33:16.852Z,38.98
2018-05-03T11:34:16.936Z,38.98
2018-05-03T11:35:16.893Z,39.20
2018-05-03T11:36:16.900Z,38.91
2018-05-03T11:37:17.020Z,38.23
2018-05-03T11:38:17.034Z,37.90
2018-05-03T11:39:17.094Z,37.90
2018-05-03T11:40:17.007Z,38.96
2018-05-03T11:41:17.032Z,38.21
2018-05-03T11:42:17.096Z,38.01
2018-05-03T11:43:17.107Z,37.80
2018-05-03T11:44:17.144Z,37.62
2018-05-03T11:45:17.131Z,37.64
2018-05-03T11:46:17.241Z,37.84
2018-05-03T11:47:17.177Z,37.85
2018-05-03T11:48:17.197Z,37.66
2018-05-03T11:49:17.248Z,37.19
2018-05-03T11:50:17.257Z,37.58
2018-05-03T11:51:17.294Z,36.98
2018-05-03T11:52:17.293Z,36.63
2018-05-03T11:53:17.326Z,35.96
2018-05-03T11:54:17.342Z,36.08
2018-05-03T11:55:17.422Z,35.96
2018-05-03T11:56:17.458Z,36.04
2018-05-03T11:57:17.446Z,36.59
2018-05-03T11:58:17.451Z,36.49
2018-05-03T11:59:17.552Z,36.41
2018-05-03T12:00:17.494Z,36.35
2018-05-03T12:01:17.544Z,35.98
2018-05-03T12:02:17.594Z,35.71
2018-05-03T12:03:17.586Z,35.43
2018-05-03T12:04:17.616Z,35.02
2018-05-03T12:05:17.668Z,35.02
2018-05-03T12:06:17.729Z,34.61
2018-05-03T12:07:17.724Z,34.42
2018-05-03T12:08:17.735Z,34.91
2018-05-03T12:09:17.740Z,34.83
2018-05-03T12:10:17.777Z,34.45
2018-05-03T12:11:17.858Z,34.36
2018-05-03T12:12:17.844Z,34.44
2018-05-03T12:13:17.844Z,34.79
2018-05-03T12:14:17.928Z,34.89
2018-05-03T12:15:17.901Z,34.79
2018-05-03T12:16:17.958Z,34.63
2018-05-03T12:17:18.007Z,34.47
2018-05-03T12:18:18.000Z,34.09
2018-05-03T12:19:18.072Z,34.24
2018-05-03T12:20:18.064Z,34.22
2018-05-03T12:21:18.141Z,34.21
2018-05-03T12:22:18.153Z,33.75
2018-05-03T12:23:18.152Z,33.87
2018-05-03T12:24:18.249Z,33.87
2018-05-03T12:25:18.183Z,34.08
2018-05-03T12:26:18.210Z,32.99
2018-05-03T12:27:18.259Z,33.38
2018-05-03T12:28:18.287Z,32.99
2018-05-03T12:29:18.331Z,33.67
2018-05-03T12:30:18.347Z,33.30
2018-05-03T12:31:18.348Z,33.11
2018-05-03T12:32:18.397Z,32.82
2018-05-03T12:33:18.424Z,32.66
2018-05-03T12:34:18.448Z,32.46
2018-05-03T12:35:18.488Z,32.32
2018-05-03T12:36:18.504Z,32.52
2018-05-03T12:37:18.531Z,32.24
2018-05-03T12:38:18.563Z,32.46
2018-05-03T12:39:18.735Z,32.09
2018-05-03T12:42:50.633Z,31.20
2018-05-03T12:43:50.698Z,31.49
2018-05-03T12:44:50.786Z,31.10
2018-05-03T12:45:50.739Z,31.03
2018-05-03T12:46:50.719Z,31.03
2018-05-03T12:47:50.728Z,31.42
2018-05-03T12:48:50.813Z,31.54
2018-05-03T12:50:50.921Z,31.13
2018-05-03T12:51:51.017Z,30.74
2018-05-03T12:52:50.985Z,30.15
2018-05-03T12:53:51.019Z,30.46
2018-05-03T12:54:51.014Z,30.16
2018-05-03T12:57:12.041Z,29.87
2018-05-03T12:57:51.119Z,29.66
2018-05-03T12:58:51.135Z,29.94
2018-05-03T12:59:51.121Z,29.93